Latest Coastal Weather Observations for Barrow Island

IDW60701

Issued at 1:52 am WST Tuesday 26 May 2015 (issued every 10 minutes, with the page automatically refreshed every 10 minutes)

About coastal observations | Map of coastal stations | Coastal observations for WA | Marine services | Other Formats
Station Details ID: 005094 Name: BARROW ISLAND AIRPORT Lat: -20.88 Lon: 115.41 Height: 6.4 m
Data from the previous 72 hours. | See also: Recent months at Barrow Island
Date/Time
WST
Temp

°C
Wind Pressure Rain
since 9am
mm
Weather Cloud Vis
km
Sea
Height
m
Swell
Dir
 
Speed
knots
Gust
knots
hPa Trend Height
m
Period
s
Dir
26/01:30am 20.8 E 15 19 1016.1 - 1.2 - - - - - - -
26/01:00am 20.6 ESE 15 18 1016.1 - 1.2 - - - - - - -
26/12:30am 20.6 E 16 20 1016.4 - 1.2 - - - - - - -
26/12:00am 20.6 E 17 20 1016.7 - 1.2 - - - - - - -
 
Date/Time
WST
Temp

°C
Wind Pressure Rain
since 9am
mm
Weather Cloud Vis
km
Sea
Height
m
Swell
Dir
 
Speed
knots
Gust
knots
hPa Trend Height
m
Period
s
Dir
25/11:30pm 20.6 E 16 19 1016.9 - 1.2 - - - - - - -
25/11:00pm 20.5 ESE 17 20 1017.1 - 1.2 - - - - - - -
25/10:30pm 20.5 ESE 16 21 1017.2 - 1.2 - - - - - - -
25/10:00pm 20.4 ESE 17 21 1017.2 - 1.2 - - - - - - -
25/09:30pm 19.8 ESE 17 19 1017.3 - 1.2 - - - - - - -
25/09:00pm 19.8 ESE 17 20 1017.2 - 1.2 - - - - - - -
25/08:30pm 19.9 ESE 17 19 1017.2 - 1.2 - - - - - - -
25/08:00pm 20.1 ESE 17 20 1017.0 - 1.2 - - - - - - -
25/07:30pm 20.2 E 18 20 1016.8 - 1.2 - - - - - - -
25/07:00pm 20.4 E 17 22 1016.5 - 1.2 - - - - - - -
25/06:30pm 20.3 E 18 22 1016.0 - 1.2 - - - - - - -
25/06:00pm 20.4 E 18 22 1015.3 - 1.2 - - - - - - -
25/05:30pm 20.6 E 19 22 1014.9 - 1.2 - - - - - - -
25/05:00pm 20.4 E 19 22 1014.9 - 1.2 - - - - - - -
25/04:30pm 20.2 E 17 20 1014.8 - 1.2 - - - - - - -
25/04:00pm 20.2 E 16 20 1014.7 - 1.2 - - - - - - -
25/03:30pm 20.0 E 17 20 1014.6 - 1.2 - - - - - - -
25/03:00pm 19.9 E 17 19 1014.6 - 1.2 - - - - - - -
25/02:30pm 20.0 E 18 21 1014.5 - 1.2 - - - - - - -
25/02:00pm 19.9 E 19 23 1014.7 - 1.2 - - - - - - -
25/01:30pm 19.6 E 18 21 1015.0 - 1.2 - - - - - - -
25/01:00pm 19.2 E 19 22 1015.5 - 0.8 - - - - - - -
25/12:30pm 19.3 ENE 21 25 1015.8 - 0.6 - - - - - - -
25/12:00pm 20.3 ENE 21 24 1016.0 - 0.0 - - - - - - -
25/11:30am 21.3 E 22 26 1016.1 - 0.0 - - - - - - -
25/11:00am 21.1 E 22 26 1016.3 - 0.0 - - - - - - -
25/10:30am 20.8 E 24 28 1016.6 - 0.0 - - - - - - -
25/10:00am 20.8 E 23 27 1016.8 - 0.0 - - - - - - -
25/09:30am 20.7 E 26 29 1016.7 - 0.0 - - - - - - -
25/09:00am 20.7 E 26 31 1016.6 - 31.4 - - - - - - -
25/08:30am 20.6 E 27 32 1016.3 - 31.4 - - - - - - -
25/08:00am 20.3 E 27 32 1016.0 - 31.4 - - - - - - -
25/07:30am 20.3 E 27 31 1015.8 - 31.4 - - - - - - -
25/07:00am 20.5 E 25 29 1015.6 - 31.4 - - - - - - -
25/06:30am 20.7 E 24 28 1015.1 - 31.4 - - - - - - -
25/06:00am 20.8 E 23 28 1014.7 - 31.4 - - - - - - -
25/05:30am 20.9 E 23 27 1014.4 - 31.4 - - - - - - -
25/05:00am 21.1 E 22 26 1014.2 - 31.4 - - - - - - -
25/04:30am 21.1 E 22 26 1014.1 - 31.4 - - - - - - -
25/04:00am 21.1 ENE 24 27 1014.0 - 31.4 - - - - - - -
25/03:30am 21.0 E 20 24 1014.0 - 31.4 - - - - - - -
25/03:00am 20.9 E 23 26 1013.9 - 31.4 - - - - - - -
25/02:30am 21.1 E 22 25 1014.0 - 31.4 - - - - - - -
25/02:00am 21.3 E 20 23 1014.1 - 31.4 - - - - - - -
25/01:30am 21.1 ENE 20 23 1013.9 - 31.4 - - - - - - -
25/01:00am 21.1 ENE 21 24 1014.3 - 31.4 - - - - - - -
25/12:30am 21.3 E 19 21 1014.5 - 31.4 - - - - - - -
25/12:00am 21.8 E 16 18 1014.5 - 31.4 - - - - - - -
 
Date/Time
WST
Temp

°C
Wind Pressure Rain
since 9am
mm
Weather Cloud Vis
km
Sea
Height
m
Swell
Dir
 
Speed
knots
Gust
knots
hPa Trend Height
m
Period
s
Dir
24/11:30pm 21.5 ENE 18 21 1014.5 - 31.4 - - - - - - -
24/11:00pm 21.2 E 15 17 1014.8 - 31.4 - - - - - - -
24/10:30pm 21.1 E 18 20 1015.1 - 31.4 - - - - - - -
24/10:00pm 21.0 E 18 21 1015.3 - 31.4 - - - - - - -
24/09:30pm 21.1 ENE 19 23 1015.2 - 31.4 - - - - - - -
24/09:00pm 21.1 ENE 21 25 1015.0 - 31.4 - - - - - - -
24/08:30pm 20.8 ENE 24 28 1014.7 - 31.4 - - - - - - -
24/08:00pm 21.0 ENE 22 26 1015.1 - 31.4 - - - - - - -
24/07:30pm 20.6 ENE 22 24 1014.9 - 31.2 - - - - - - -
24/07:00pm 20.7 ENE 22 25 1014.7 - 31.2 - - - - - - -
24/06:30pm 21.0 ENE 19 21 1014.9 - 30.8 - - - - - - -
24/06:00pm 20.9 ENE 17 19 1015.0 - 30.2 - - - - - - -
24/05:30pm 20.7 ENE 20 23 1014.5 - 29.4 - - - - - - -
24/05:00pm 20.9 ENE 17 20 1014.4 - 28.0 - - - - - - -
24/04:30pm 20.7 ENE 18 21 1014.4 - 26.8 - - - - - - -
24/04:00pm 21.0 ENE 19 22 1014.2 - 25.6 - - - - - - -
24/03:30pm 20.9 ENE 18 20 1014.0 - 23.6 - - - - - - -
24/03:00pm 21.1 ENE 17 19 1014.2 - 21.4 - - - - - - -
24/02:30pm 21.1 ENE 14 16 1014.2 - 18.6 - - - - - - -
24/02:00pm 20.8 NE 11 13 1014.2 - 17.4 - - - - - - -
24/01:30pm 21.4 E 6 7 1014.2 - 16.6 - - - - - - -
24/01:00pm 21.5 E 6 8 1014.7 - 16.6 - - - - - - -
24/12:30pm 21.5 ESE 10 12 1015.1 - 16.0 - - - - - - -
24/12:00pm 21.7 SE 12 14 1015.3 - 13.0 - - - - - - -
24/11:30am 21.9 SE 11 13 1015.6 - 11.2 - - - - - - -
24/11:00am 22.0 SSE 10 11 1015.8 - 9.4 - - - - - - -
24/10:30am 22.0 SSE 9 10 1016.0 - 9.4 - - - - - - -
24/10:00am 21.5 ESE 7 8 1016.1 - 8.8 - - - - - - -
24/09:30am 21.7 E 10 11 1016.0 - 6.8 - - - - - - -
24/09:00am 21.9 S 6 7 1015.6 - 14.4 - - - - - - -
24/08:30am 22.5 SE 4 5 1015.6 - 14.0 - - - - - - -
24/08:00am 22.4 SE 5 6 1015.3 - 13.6 - - - - - - -
24/07:30am 22.5 ESE 4 5 1014.9 - 13.6 - - - - - - -
24/07:00am 22.4 E 4 5 1014.9 - 13.4 - - - - - - -
24/06:30am 22.6 ENE 6 7 1014.8 - 13.4 - - - - - - -
24/06:00am 22.3 ENE 7 9 1014.3 - 13.4 - - - - - - -
24/05:30am 22.5 E 7 8 1014.0 - 13.4 - - - - - - -
24/05:00am 22.3 ESE 6 7 1014.0 - 13.4 - - - - - - -
24/04:30am 22.1 SE 6 7 1013.8 - 13.4 - - - - - - -
24/04:00am 21.8 SE 5 5 1014.1 - 13.4 - - - - - - -
24/03:30am 21.5 SSE 3 4 1014.2 - 13.4 - - - - - - -
24/03:00am 21.3 S 5 7 1013.9 - 13.4 - - - - - - -
24/02:30am 20.5 CALM 0 0 1014.2 - 13.4 - - - - - - -
24/02:00am 20.2 WNW 3 4 1014.6 - 13.4 - - - - - - -
24/01:30am 20.4 WNW 3 4 1014.7 - 13.4 - - - - - - -
24/01:00am 20.7 NNW 1 4 1014.8 - 13.4 - - - - - - -
24/12:30am 20.9 CALM 0 0 1014.9 - 13.4 - - - - - - -
24/12:00am 21.3 CALM 0 3 1015.0 - 13.4 - - - - - - -
 
Date/Time
WST
Temp

°C
Wind Pressure Rain
since 9am
mm
Weather Cloud Vis
km
Sea
Height
m
Swell
Dir
 
Speed
knots
Gust
knots
hPa Trend Height
m
Period
s
Dir
23/11:30pm 21.4 NW 4 5 1015.3 - 13.4 - - - - - - -
23/11:00pm 22.4 ESE 4 5 1015.4 - 13.4 - - - - - - -
23/10:30pm 22.4 ESE 5 6 1015.2 - 13.4 - - - - - - -
23/10:00pm 22.4 ESE 4 5 1015.4 - 13.4 - - - - - - -
23/09:30pm 22.4 ESE 6 7 1015.3 - 13.4 - - - - - - -
23/09:00pm 22.4 E 6 8 1015.6 - 13.4 - - - - - - -
23/08:30pm 22.4 SE 8 11 1015.3 - 13.4 - - - - - - -
23/08:00pm 22.3 SSE 9 11 1014.9 - 13.4 - - - - - - -
23/07:30pm 22.1 SSE 7 8 1014.9 - 13.4 - - - - - - -
23/07:00pm 22.0 S 6 7 1014.8 - 13.4 - - - - - - -
23/06:30pm 22.0 SSE 6 7 1014.8 - 13.4 - - - - - - -
23/06:00pm 21.9 SSE 5 6 1014.6 - 13.4 - - - - - - -
23/05:30pm 21.8 SE 6 7 1014.7 - 13.4 - - - - - - -
23/05:00pm 21.9 S 6 9 1015.1 - 13.4 - - - - - - -
23/04:30pm 21.9 SSE 3 5 1014.9 - 13.4 - - - - - - -
23/04:00pm 21.7 CALM 0 4 1014.7 - 13.4 - - - - - - -
23/03:30pm 21.8 S 3 5 1015.0 - 13.4 - - - - - - -
23/03:00pm 21.6 SSE 7 9 1015.1 - 13.4 - - - - - - -
23/02:30pm 21.3 SSE 9 11 1015.1 - 13.4 - - - - - - -
23/02:00pm 21.4 S 10 12 1015.2 - 12.6 - - - - - - -
23/01:30pm 21.5 S 7 9 1015.4 - 12.2 - - - - - - -
23/01:00pm 21.0 S 10 12 1015.9 - 11.8 - - - - - - -
23/12:30pm 21.0 SSE 12 15 1016.1 - 10.8 - - - - - - -
23/12:00pm 22.2 S 8 10 1016.3 - 0.6 - - - - - - -
23/11:30am 22.7 S 9 11 1016.6 - 0.0 - - - - - - -
23/11:00am 23.0 SSE 8 11 1016.6 - 0.0 - - - - - - -
23/10:30am 22.9 SSE 7 9 1016.9 - 0.0 - - - - - - -
23/10:00am 23.0 SSE 6 8 1017.2 - 0.0 - - - - - - -
23/09:30am 23.1 SE 8 9 1016.9 - 0.0 - - - - - - -
23/09:00am 22.9 SE 9 11 1016.9 - 6.6 - - - - - - -
23/08:30am 22.2 SSE 10 11 1016.8 - 6.6 - - - - - - -
23/08:00am 22.2 SSE 9 11 1016.9 - 6.6 - - - - - - -
23/07:30am 22.0 SSE 8 10 1016.7 - 6.6 - - - - - - -
23/07:00am 21.7 SE 8 9 1016.2 - 6.6 - - - - - - -
23/06:30am 21.7 ESE 8 9 1015.8 - 6.6 - - - - - - -
23/06:00am 21.6 SSE 10 11 1015.7 - 6.6 - - - - - - -
23/05:30am 21.5 SSE 9 10 1015.5 - 6.6 - - - - - - -
23/05:00am 21.5 SSE 10 12 1015.3 - 6.6 - - - - - - -
23/04:30am 21.5 S 13 15 1015.5 - 6.6 - - - - - - -
23/04:00am 22.1 SSE 12 15 1015.6 - 5.2 - - - - - - -
23/03:30am 22.2 SSE 8 10 1015.8 - 5.2 - - - - - - -
23/03:00am 22.2 SE 5 7 1016.0 - 5.2 - - - - - - -
23/02:30am 22.1 SE 4 5 1016.3 - 5.2 - - - - - - -
23/02:00am 22.2 SE 6 8 1016.1 - 5.2 - - - - - - -

Other Formats:

Comma delimited format used in spreadsheet applications
http://www.bom.gov.au/fwo/IDW60701/IDW60701.95304.axf

JavaScript Object Notation format (JSON) in row-major order
http://www.bom.gov.au/fwo/IDW60701/IDW60701.95304.json